Home > Products > Valid Products > TAF

000
FTUS43 KFGF 310500
TAFFAR
TAF
KFAR 310520Z 3106/0106 34015KT P6SM OVC015
     FM311600 01017G25KT P6SM BKN050
     FM010200 01015KT P6SM OVC035=



000
FTUS43 KFGF 310500
TAFGFK
TAF
KGFK 310520Z 3106/0106 35015G23KT P6SM FEW015 OVC035
     FM310700 33014G23KT P6SM OVC015
     FM311600 36017G25KT P6SM BKN070
     FM010200 01014KT P6SM BKN100=



000
FTUS43 KFGF 302300
TAFFAR
TAF
KFAR 302322Z 3100/3124 18008KT P6SM SKC
     FM310100 32008KT P6SM SKC
     FM310400 34014KT P6SM OVC015
     FM311500 01016G22KT P6SM BKN050=



000
FTUS43 KFGF 302300
TAFGFK
TAF
KGFK 302322Z 3100/3124 30007KT P6SM SKC
     FM310200 33014KT P6SM OVC015
     FM311500 36013G20KT P6SM BKN070=



000
FTUS43 KFGF 301900 AAA
TAFFAR
TAF AMD
KFAR 301903Z 3019/3118 18014G19KT P6SM BKN080
      TEMPO 3100/3102 BKN020
     FM310200 32014KT P6SM OVC015=



000
FTUS43 KFGF 301700
TAFFAR
TAF
KFAR 301723Z 3018/3118 18013KT P6SM BKN080
      TEMPO 3100/3102 BKN020
     FM310200 32014KT P6SM OVC015=



000
FTUS43 KFGF 301700
TAFGFK
TAF
KGFK 301723Z 3018/3118 18015KT P6SM FEW010 BKN080
      TEMPO 3023/3101 BKN020
     FM310100 32014KT P6SM OVC015=



000
FTUS43 KFGF 301600 AAB
TAFGFK
TAF AMD
KGFK 301657Z 3017/3112 18015KT P6SM FEW010
      TEMPO 3020/3024 BKN020
     FM310000 32012KT P6SM OVC020
     FM310300 36015G24KT P6SM BKN015=



000
FTUS43 KFGF 301500 AAA
TAFGFK
TAF AMD
KGFK 301559Z 3016/3112 18013KT P6SM BKN015
     FM310000 32012KT P6SM OVC035
     FM310300 36015G24KT P6SM BKN025=



000
FTUS43 KFGF 301500 AAA
TAFFAR
TAF AMD
KFAR 301540Z 3016/3112 18013KT P6SM FEW019
     FM301900 18010KT P6SM BKN020
     FM310200 32013KT P6SM BKN015
     FM310600 36015G24KT P6SM BKN015=



000
FTUS43 KFGF 301100
TAFFAR
TAF
KFAR 301131Z 3012/3112 18011KT P6SM BKN017
     FM310200 32013KT P6SM BKN030
     FM310600 36015G24KT P6SM BKN025=



000
FTUS43 KFGF 301100
TAFGFK
TAF
KGFK 301131Z 3012/3112 18010KT P6SM BKN015
     FM310000 32012KT P6SM OVC035
     FM310300 36015G24KT P6SM BKN025=



000
FTUS43 KFGF 300500
TAFFAR
TAF
KFAR 300524Z 3006/3106 VRB06KT P6SM SCT150
     FM300800 14006KT P6SM OVC025
     FM301100 18011KT P6SM BKN100
     FM310200 32011KT P6SM SCT250=



000
FTUS43 KFGF 300500
TAFGFK
TAF
KGFK 300524Z 3006/3106 VRB06KT P6SM SCT130
     FM300800 16009KT P6SM BKN025
     FM301200 18010KT P6SM BKN080
     FM310000 32012KT P6SM OVC035=



000
FTUS43 KFGF 292300 RRA
TAFFAR
TAF
KFAR 292342Z 3000/3024 01012KT P6SM SCT025
     FM300200 VRB06KT P6SM SCT250
     FM301500 16011KT P6SM BKN100=



000
FTUS43 KFGF 292300 RRA
TAFGFK
TAF
KGFK 292342Z 3000/3024 01011KT P6SM SCT015
     FM300100 VRB06KT P6SM SCT250
     FM301000 16009KT P6SM BKN025=



000
FTUS43 KFGF 292100 AAA
TAFFAR
TAF AMD
KFAR 292147Z 2922/3018 35015KT P6SM SCT024
      TEMPO 2922/2923 BKN022
     FM300000 34012KT P6SM SCT200
     FM300600 12003KT P6SM BKN100=



000
FTUS43 KFGF 292100 AAC
TAFGFK
TAF AMD
KGFK 292145Z 2922/3018 35015KT P6SM SCT023
     FM300000 34007KT P6SM BKN200
     FM300600 15004KT P6SM BKN100=



000
FTUS43 KFGF 292000 AAB
TAFGFK
TAF AMD
KGFK 292009Z 2920/3018 36018G24KT P6SM BKN021
     FM300000 34007KT P6SM BKN200
     FM300600 15004KT P6SM BKN100=



000
FTUS43 KFGF 291800 AAA
TAFGFK
TAF AMD
KGFK 291803Z 2918/3018 35018KT P6SM OVC025
      TEMPO 2918/2921 1SM -SN
     FM300000 34007KT P6SM BKN200
     FM300600 15004KT P6SM BKN100=



000
FTUS43 KFGF 291700
TAFFAR
TAF
KFAR 291739Z 2918/3018 34023KT P6SM OVC025
      TEMPO 2918/2919 -SN BKN035
     FM300000 34012KT P6SM SCT200
     FM300600 12003KT P6SM BKN100=



000
FTUS43 KFGF 291700
TAFGFK
TAF
KGFK 291739Z 2918/3018 35018KT P6SM OVC025
     FM300000 34007KT P6SM BKN200
     FM300600 15004KT P6SM BKN100=



000
FTUS43 KFGF 291400 AAA
TAFFAR
TAF AMD
KFAR 291456Z 2915/3012 34017G25KT P6SM OVC035
      TEMPO 2915/2917 2SM -SN BKN022
     FM291800 34017G27KT P6SM SCT020
      TEMPO 2918/2921 BKN025
     FM300000 34007KT P6SM SCT250=



000
FTUS43 KFGF 291300 AAA
TAFGFK
TAF AMD
KGFK 291332Z 2914/3012 34017G27KT P6SM BKN040
      TEMPO 2914/2916 BKN025
     FM291800 34017G27KT P6SM SCT020
      TEMPO 2918/2921 BKN025
     FM300000 34007KT P6SM SCT250=



000
FTUS43 KFGF 291100
TAFGFK
TAF
KGFK 291121Z 2912/3012 34017G27KT P6SM BKN040
     FM291800 34017G27KT P6SM SCT020
      TEMPO 2918/2921 BKN025
     FM300000 34007KT P6SM SCT250=



000
FTUS43 KFGF 291100
TAFFAR
TAF
KFAR 291121Z 2912/3012 34017G27KT P6SM BKN040
      TEMPO 2912/2915 BKN015
     FM291800 34017G27KT P6SM SCT020
      TEMPO 2918/2921 BKN025
     FM300000 34007KT P6SM SCT250=



000
FTUS43 KFGF 290500
TAFGFK
TAF
KGFK 290529Z 2906/3006 33018G24KT P6SM OVC012
     FM291900 34018KT P6SM SCT015 BKN250
     FM300100 36007KT P6SM BKN250=



000
FTUS43 KFGF 290500
TAFFAR
TAF
KFAR 290529Z 2906/3006 34016G25KT P6SM OVC010
     FM290900 34017G24KT P6SM OVC015
     FM292000 25017KT P6SM BKN250
     FM300100 35007KT P6SM BKN250=



000
FTUS43 KFGF 290200 AAB
TAFGFK
TAF AMD
KGFK 290203Z 2902/2924 34020G29KT P6SM FZDZ OVC005
     FM290300 33020G28KT P6SM OVC009
     FM291400 34018KT P6SM OVC015=



000
FTUS43 KFGF 290200 AAA
TAFFAR
TAF AMD
KFAR 290200Z 2902/2924 34021G27KT 5SM BR OVC005
     FM290300 34022G28KT P6SM OVC007
     FM290600 34020G28KT P6SM OVC008
     FM291500 34017KT P6SM OVC015=



000
FTUS43 KFGF 290000 AAA
TAFGFK
TAF AMD
KGFK 290021Z 2900/2924 33018G23KT P6SM -FZDZ OVC007
     FM290200 34020G29KT P6SM OVC008
     FM291400 34018KT P6SM OVC015=



000
FTUS43 KFGF 282300
TAFGFK
TAF
KGFK 282332Z 2900/2924 33018G23KT 4SM -RA BR OVC005
      TEMPO 2900/2902 2SM BR OVC003
     FM290400 34020G29KT P6SM OVC008
     FM291400 34018KT P6SM OVC015=



000
FTUS43 KFGF 282300
TAFFAR
TAF
KFAR 282332Z 2900/2924 32012KT 1SM BR OVC004
     FM290100 34015G23KT 3SM BR OVC005
     FM290600 34020G28KT P6SM OVC008
     FM291500 34017KT P6SM OVC015=



000
FTUS43 KFGF 281700
TAFFAR
TAF
KFAR 281722Z 2818/2918 16012KT 5SM BR OVC007
     FM282200 VRB03KT 3SM BR OVC005
     FM290100 34020KT P6SM OVC008=



000
FTUS43 KFGF 281700
TAFGFK
TAF
KGFK 281722Z 2818/2918 VRB03KT 4SM BR OVC004
     FM290000 33018KT 4SM BR OVC006
     FM290600 34020KT P6SM OVC008=



000
FTUS43 KFGF 281500 AAA
TAFGFK
TAF AMD
KGFK 281526Z 2815/2912 16010KT 2SM BR OVC004
     FM281800 VRB06KT P6SM OVC008
     FM290000 33018KT P6SM OVC010=



000
FTUS43 KFGF 281500 AAA
TAFFAR
TAF AMD
KFAR 281526Z 2815/2912 16015G25KT 5SM BR OVC007
     FM281800 16012KT P6SM OVC010
     FM282100 VRB06KT P6SM OVC012
     FM290300 33020KT P6SM OVC015=



000
FTUS43 KFGF 281100
TAFGFK
TAF
KGFK 281120Z 2812/2912 16010KT 5SM BR OVC004
     FM281800 VRB06KT P6SM OVC008
     FM290000 33018KT P6SM OVC010=



000
FTUS43 KFGF 281100
TAFFAR
TAF
KFAR 281120Z 2812/2912 16015G25KT P6SM OVC007
     FM281600 16012KT P6SM OVC010
     FM282100 VRB06KT P6SM OVC012
     FM290300 33020KT P6SM OVC015=



    US Dept of Commerce
    National Oceanic and Atmospheric Administration
    National Weather Service
    1325 East West Highway
    Silver Spring, MD 20910
    Page Author: NWS Internet Services Team
Disclaimer
Information Quality
Credits
Glossary
Privacy Policy
Freedom of Information Act (FOIA)
About Us
Career Opportunities